sensor_id;sensor_type;location;lat;lon;timestamp;P1;durP1;ratioP1;P2;durP2;ratioP2
22357;SDS011;11346;50.150;8.150;2022-11-20T00:01:06;31.37;;;15.73;;
22357;SDS011;11346;50.150;8.150;2022-11-20T00:03:33;32.47;;;16.27;;
22357;SDS011;11346;50.150;8.150;2022-11-20T00:06:01;25.30;;;13.67;;
22357;SDS011;11346;50.150;8.150;2022-11-20T00:08:28;29.57;;;14.33;;
22357;SDS011;11346;50.150;8.150;2022-11-20T00:10:55;29.40;;;15.07;;
22357;SDS011;11346;50.150;8.150;2022-11-20T00:13:23;29.53;;;14.17;;
22357;SDS011;11346;50.150;8.150;2022-11-20T00:15:56;30.60;;;15.77;;
22357;SDS011;11346;50.150;8.150;2022-11-20T00:18:23;32.67;;;15.63;;
22357;SDS011;11346;50.150;8.150;2022-11-20T00:20:50;30.43;;;16.00;;
22357;SDS011;11346;50.150;8.150;2022-11-20T00:23:19;24.33;;;13.33;;
22357;SDS011;11346;50.150;8.150;2022-11-20T00:25:46;31.33;;;15.57;;
22357;SDS011;11346;50.150;8.150;2022-11-20T00:28:13;25.67;;;13.60;;
22357;SDS011;11346;50.150;8.150;2022-11-20T00:30:40;25.10;;;13.53;;
22357;SDS011;11346;50.150;8.150;2022-11-20T00:33:07;22.03;;;12.20;;
22357;SDS011;11346;50.150;8.150;2022-11-20T00:35:34;26.93;;;13.30;;
22357;SDS011;11346;50.150;8.150;2022-11-20T00:38:01;25.43;;;13.00;;
22357;SDS011;11346;50.150;8.150;2022-11-20T00:40:29;28.93;;;14.13;;
22357;SDS011;11346;50.150;8.150;2022-11-20T00:42:56;24.33;;;12.27;;
22357;SDS011;11346;50.150;8.150;2022-11-20T00:45:23;21.17;;;13.13;;
22357;SDS011;11346;50.150;8.150;2022-11-20T00:47:50;22.43;;;11.80;;
22357;SDS011;11346;50.150;8.150;2022-11-20T00:50:18;26.53;;;12.87;;
22357;SDS011;11346;50.150;8.150;2022-11-20T00:52:45;23.73;;;12.80;;
22357;SDS011;11346;50.150;8.150;2022-11-20T00:55:12;25.57;;;12.53;;
22357;SDS011;11346;50.150;8.150;2022-11-20T00:57:40;24.67;;;13.17;;
22357;SDS011;11346;50.150;8.150;2022-11-20T01:00:08;22.47;;;11.87;;
22357;SDS011;11346;50.150;8.150;2022-11-20T01:02:35;22.50;;;11.70;;
22357;SDS011;11346;50.150;8.150;2022-11-20T01:05:02;21.17;;;10.40;;
22357;SDS011;11346;50.150;8.150;2022-11-20T01:07:29;25.40;;;12.87;;
22357;SDS011;11346;50.150;8.150;2022-11-20T01:09:56;24.80;;;12.50;;
22357;SDS011;11346;50.150;8.150;2022-11-20T01:12:23;25.30;;;13.37;;
22357;SDS011;11346;50.150;8.150;2022-11-20T01:14:52;25.67;;;13.90;;
22357;SDS011;11346;50.150;8.150;2022-11-20T01:17:19;26.30;;;13.37;;
22357;SDS011;11346;50.150;8.150;2022-11-20T01:19:48;22.20;;;12.83;;
22357;SDS011;11346;50.150;8.150;2022-11-20T01:22:15;24.43;;;11.93;;
22357;SDS011;11346;50.150;8.150;2022-11-20T01:24:42;22.23;;;11.17;;
22357;SDS011;11346;50.150;8.150;2022-11-20T01:27:09;24.20;;;12.90;;
22357;SDS011;11346;50.150;8.150;2022-11-20T01:29:36;22.90;;;12.37;;
22357;SDS011;11346;50.150;8.150;2022-11-20T01:32:05;24.87;;;13.40;;
22357;SDS011;11346;50.150;8.150;2022-11-20T01:34:32;25.10;;;12.33;;
22357;SDS011;11346;50.150;8.150;2022-11-20T01:36:59;24.77;;;13.20;;
22357;SDS011;11346;50.150;8.150;2022-11-20T01:39:26;25.87;;;13.93;;
22357;SDS011;11346;50.150;8.150;2022-11-20T01:41:54;23.73;;;13.17;;
22357;SDS011;11346;50.150;8.150;2022-11-20T01:44:47;25.97;;;13.33;;
22357;SDS011;11346;50.150;8.150;2022-11-20T01:47:17;24.63;;;13.07;;
22357;SDS011;11346;50.150;8.150;2022-11-20T01:49:45;25.97;;;13.37;;
22357;SDS011;11346;50.150;8.150;2022-11-20T01:52:14;26.47;;;13.13;;
22357;SDS011;11346;50.150;8.150;2022-11-20T01:54:42;24.43;;;12.37;;
22357;SDS011;11346;50.150;8.150;2022-11-20T01:57:12;24.63;;;13.40;;
22357;SDS011;11346;50.150;8.150;2022-11-20T01:59:41;22.83;;;12.20;;
22357;SDS011;11346;50.150;8.150;2022-11-20T02:02:10;23.83;;;12.63;;
22357;SDS011;11346;50.150;8.150;2022-11-20T02:04:38;23.63;;;13.40;;
22357;SDS011;11346;50.150;8.150;2022-11-20T02:07:05;21.43;;;12.67;;
22357;SDS011;11346;50.150;8.150;2022-11-20T02:09:32;26.03;;;13.70;;
22357;SDS011;11346;50.150;8.150;2022-11-20T02:11:59;22.17;;;12.33;;
22357;SDS011;11346;50.150;8.150;2022-11-20T02:14:27;21.13;;;11.17;;
22357;SDS011;11346;50.150;8.150;2022-11-20T02:16:53;17.93;;;10.80;;
22357;SDS011;11346;50.150;8.150;2022-11-20T02:19:22;18.10;;;10.20;;
22357;SDS011;11346;50.150;8.150;2022-11-20T02:21:55;17.37;;;9.93;;
22357;SDS011;11346;50.150;8.150;2022-11-20T02:24:24;18.07;;;10.47;;
22357;SDS011;11346;50.150;8.150;2022-11-20T02:26:52;19.17;;;10.43;;
22357;SDS011;11346;50.150;8.150;2022-11-20T02:29:22;18.23;;;10.20;;
22357;SDS011;11346;50.150;8.150;2022-11-20T02:31:50;17.73;;;9.87;;
22357;SDS011;11346;50.150;8.150;2022-11-20T02:34:17;17.87;;;9.97;;
22357;SDS011;11346;50.150;8.150;2022-11-20T02:36:44;17.10;;;10.30;;
22357;SDS011;11346;50.150;8.150;2022-11-20T02:39:11;17.30;;;9.50;;
22357;SDS011;11346;50.150;8.150;2022-11-20T02:41:43;16.07;;;9.40;;
22357;SDS011;11346;50.150;8.150;2022-11-20T02:44:10;19.23;;;9.83;;
22357;SDS011;11346;50.150;8.150;2022-11-20T02:46:37;18.00;;;9.77;;
22357;SDS011;11346;50.150;8.150;2022-11-20T02:49:04;16.03;;;9.80;;
22357;SDS011;11346;50.150;8.150;2022-11-20T02:51:31;19.07;;;10.10;;
22357;SDS011;11346;50.150;8.150;2022-11-20T02:53:58;19.17;;;10.10;;
22357;SDS011;11346;50.150;8.150;2022-11-20T02:56:25;16.70;;;9.43;;
22357;SDS011;11346;50.150;8.150;2022-11-20T02:58:56;16.77;;;10.03;;
22357;SDS011;11346;50.150;8.150;2022-11-20T03:01:23;19.50;;;10.37;;
22357;SDS011;11346;50.150;8.150;2022-11-20T03:03:50;18.40;;;9.80;;
22357;SDS011;11346;50.150;8.150;2022-11-20T03:06:19;15.93;;;9.40;;
22357;SDS011;11346;50.150;8.150;2022-11-20T03:08:46;19.13;;;10.27;;
22357;SDS011;11346;50.150;8.150;2022-11-20T03:11:13;19.57;;;10.47;;
22357;SDS011;11346;50.150;8.150;2022-11-20T03:13:40;18.60;;;10.07;;
22357;SDS011;11346;50.150;8.150;2022-11-20T03:16:10;19.23;;;10.23;;
22357;SDS011;11346;50.150;8.150;2022-11-20T03:18:37;20.47;;;11.07;;
22357;SDS011;11346;50.150;8.150;2022-11-20T03:21:05;20.10;;;10.73;;
22357;SDS011;11346;50.150;8.150;2022-11-20T03:23:32;20.73;;;11.23;;
22357;SDS011;11346;50.150;8.150;2022-11-20T03:26:09;21.63;;;11.13;;
22357;SDS011;11346;50.150;8.150;2022-11-20T03:28:37;20.17;;;11.40;;
22357;SDS011;11346;50.150;8.150;2022-11-20T03:31:05;20.27;;;10.73;;
22357;SDS011;11346;50.150;8.150;2022-11-20T03:33:33;22.37;;;10.90;;
22357;SDS011;11346;50.150;8.150;2022-11-20T03:36:01;21.33;;;10.90;;
22357;SDS011;11346;50.150;8.150;2022-11-20T03:38:28;21.60;;;10.23;;
22357;SDS011;11346;50.150;8.150;2022-11-20T03:40:57;21.90;;;11.23;;
22357;SDS011;11346;50.150;8.150;2022-11-20T03:43:24;21.43;;;11.17;;
22357;SDS011;11346;50.150;8.150;2022-11-20T03:45:51;22.17;;;11.47;;
22357;SDS011;11346;50.150;8.150;2022-11-20T03:48:18;23.27;;;11.10;;
22357;SDS011;11346;50.150;8.150;2022-11-20T03:50:47;18.93;;;10.50;;
22357;SDS011;11346;50.150;8.150;2022-11-20T03:53:14;21.23;;;11.10;;
22357;SDS011;11346;50.150;8.150;2022-11-20T03:55:41;19.03;;;10.60;;
22357;SDS011;11346;50.150;8.150;2022-11-20T03:58:08;22.03;;;11.23;;
22357;SDS011;11346;50.150;8.150;2022-11-20T04:00:36;21.23;;;10.20;;
22357;SDS011;11346;50.150;8.150;2022-11-20T04:03:03;21.23;;;11.07;;
22357;SDS011;11346;50.150;8.150;2022-11-20T04:05:30;20.37;;;10.23;;
22357;SDS011;11346;50.150;8.150;2022-11-20T04:07:58;21.23;;;10.57;;
22357;SDS011;11346;50.150;8.150;2022-11-20T04:10:25;28.33;;;9.87;;
22357;SDS011;11346;50.150;8.150;2022-11-20T04:12:52;24.07;;;11.43;;
22357;SDS011;11346;50.150;8.150;2022-11-20T04:15:19;24.70;;;10.80;;
22357;SDS011;11346;50.150;8.150;2022-11-20T04:17:46;24.30;;;11.50;;
22357;SDS011;11346;50.150;8.150;2022-11-20T04:20:13;24.97;;;11.40;;
22357;SDS011;11346;50.150;8.150;2022-11-20T04:22:41;27.10;;;10.50;;
22357;SDS011;11346;50.150;8.150;2022-11-20T04:25:09;24.90;;;10.87;;
22357;SDS011;11346;50.150;8.150;2022-11-20T04:27:36;38.00;;;10.80;;
22357;SDS011;11346;50.150;8.150;2022-11-20T04:30:03;25.63;;;10.17;;
22357;SDS011;11346;50.150;8.150;2022-11-20T04:32:31;45.20;;;11.67;;
22357;SDS011;11346;50.150;8.150;2022-11-20T04:34:58;25.93;;;11.03;;
22357;SDS011;11346;50.150;8.150;2022-11-20T04:37:25;26.33;;;10.90;;
22357;SDS011;11346;50.150;8.150;2022-11-20T04:39:52;33.17;;;11.20;;
22357;SDS011;11346;50.150;8.150;2022-11-20T04:42:20;23.33;;;10.93;;
22357;SDS011;11346;50.150;8.150;2022-11-20T04:44:56;27.67;;;10.97;;
22357;SDS011;11346;50.150;8.150;2022-11-20T04:47:23;24.83;;;11.10;;
22357;SDS011;11346;50.150;8.150;2022-11-20T04:49:51;22.30;;;10.33;;
22357;SDS011;11346;50.150;8.150;2022-11-20T04:52:18;27.63;;;10.23;;
22357;SDS011;11346;50.150;8.150;2022-11-20T04:54:45;38.60;;;11.23;;
22357;SDS011;11346;50.150;8.150;2022-11-20T04:57:13;30.07;;;11.10;;
22357;SDS011;11346;50.150;8.150;2022-11-20T04:59:41;27.03;;;10.33;;
22357;SDS011;11346;50.150;8.150;2022-11-20T05:02:09;29.67;;;11.33;;
22357;SDS011;11346;50.150;8.150;2022-11-20T05:04:36;39.70;;;11.60;;
22357;SDS011;11346;50.150;8.150;2022-11-20T05:07:03;36.53;;;11.83;;
22357;SDS011;11346;50.150;8.150;2022-11-20T05:09:30;42.50;;;11.57;;
22357;SDS011;11346;50.150;8.150;2022-11-20T05:11:57;53.53;;;12.77;;
22357;SDS011;11346;50.150;8.150;2022-11-20T05:14:24;51.93;;;13.00;;
22357;SDS011;11346;50.150;8.150;2022-11-20T05:16:52;50.37;;;11.00;;
22357;SDS011;11346;50.150;8.150;2022-11-20T05:19:20;42.53;;;11.53;;
22357;SDS011;11346;50.150;8.150;2022-11-20T05:21:47;44.77;;;13.43;;
22357;SDS011;11346;50.150;8.150;2022-11-20T05:24:14;40.83;;;14.83;;
22357;SDS011;11346;50.150;8.150;2022-11-20T05:26:41;35.13;;;12.20;;
22357;SDS011;11346;50.150;8.150;2022-11-20T05:29:09;49.17;;;12.97;;
22357;SDS011;11346;50.150;8.150;2022-11-20T05:31:36;31.30;;;13.90;;
22357;SDS011;11346;50.150;8.150;2022-11-20T05:34:05;31.13;;;11.80;;
22357;SDS011;11346;50.150;8.150;2022-11-20T05:36:32;27.73;;;11.77;;
22357;SDS011;11346;50.150;8.150;2022-11-20T05:38:59;37.50;;;13.33;;
22357;SDS011;11346;50.150;8.150;2022-11-20T05:41:26;40.33;;;12.70;;
22357;SDS011;11346;50.150;8.150;2022-11-20T05:43:53;42.77;;;11.47;;
22357;SDS011;11346;50.150;8.150;2022-11-20T05:46:20;33.27;;;12.93;;
22357;SDS011;11346;50.150;8.150;2022-11-20T05:48:47;59.23;;;16.17;;
22357;SDS011;11346;50.150;8.150;2022-11-20T05:51:17;71.57;;;15.27;;
22357;SDS011;11346;50.150;8.150;2022-11-20T05:53:44;57.00;;;12.37;;
22357;SDS011;11346;50.150;8.150;2022-11-20T05:56:12;37.33;;;11.70;;
22357;SDS011;11346;50.150;8.150;2022-11-20T05:58:39;61.67;;;12.00;;
22357;SDS011;11346;50.150;8.150;2022-11-20T06:01:08;53.77;;;11.47;;
22357;SDS011;11346;50.150;8.150;2022-11-20T06:03:35;83.53;;;17.13;;
22357;SDS011;11346;50.150;8.150;2022-11-20T06:06:02;49.50;;;13.37;;
22357;SDS011;11346;50.150;8.150;2022-11-20T06:08:31;56.03;;;14.07;;
22357;SDS011;11346;50.150;8.150;2022-11-20T06:10:58;40.57;;;11.53;;
22357;SDS011;11346;50.150;8.150;2022-11-20T06:13:29;27.50;;;11.20;;
22357;SDS011;11346;50.150;8.150;2022-11-20T06:15:56;34.53;;;11.37;;
22357;SDS011;11346;50.150;8.150;2022-11-20T06:18:23;39.00;;;12.60;;
22357;SDS011;11346;50.150;8.150;2022-11-20T06:20:58;28.63;;;10.80;;
22357;SDS011;11346;50.150;8.150;2022-11-20T06:23:27;37.60;;;11.57;;
22357;SDS011;11346;50.150;8.150;2022-11-20T06:25:55;45.90;;;11.10;;
22357;SDS011;11346;50.150;8.150;2022-11-20T06:28:22;25.37;;;10.80;;
22357;SDS011;11346;50.150;8.150;2022-11-20T06:30:49;30.43;;;11.20;;
22357;SDS011;11346;50.150;8.150;2022-11-20T06:33:16;43.50;;;11.33;;
22357;SDS011;11346;50.150;8.150;2022-11-20T06:35:43;38.47;;;11.63;;
22357;SDS011;11346;50.150;8.150;2022-11-20T06:38:11;41.30;;;12.37;;
22357;SDS011;11346;50.150;8.150;2022-11-20T06:40:39;38.37;;;11.30;;
22357;SDS011;11346;50.150;8.150;2022-11-20T06:43:09;42.73;;;11.53;;
22357;SDS011;11346;50.150;8.150;2022-11-20T06:45:36;53.43;;;12.20;;
22357;SDS011;11346;50.150;8.150;2022-11-20T06:48:03;31.07;;;11.37;;
22357;SDS011;11346;50.150;8.150;2022-11-20T06:50:31;34.03;;;10.57;;
22357;SDS011;11346;50.150;8.150;2022-11-20T06:53:00;27.90;;;9.73;;
22357;SDS011;11346;50.150;8.150;2022-11-20T06:55:28;28.23;;;10.60;;
22357;SDS011;11346;50.150;8.150;2022-11-20T06:57:55;29.87;;;11.13;;
22357;SDS011;11346;50.150;8.150;2022-11-20T07:00:23;29.03;;;10.67;;
22357;SDS011;11346;50.150;8.150;2022-11-20T07:02:50;23.83;;;9.70;;
22357;SDS011;11346;50.150;8.150;2022-11-20T07:05:18;28.60;;;9.57;;
22357;SDS011;11346;50.150;8.150;2022-11-20T07:07:45;22.63;;;9.33;;
22357;SDS011;11346;50.150;8.150;2022-11-20T07:10:12;20.80;;;9.13;;
22357;SDS011;11346;50.150;8.150;2022-11-20T07:12:39;20.63;;;9.70;;
22357;SDS011;11346;50.150;8.150;2022-11-20T07:15:06;14.97;;;7.60;;
22357;SDS011;11346;50.150;8.150;2022-11-20T07:17:35;23.63;;;9.03;;
22357;SDS011;11346;50.150;8.150;2022-11-20T07:20:02;18.73;;;8.73;;
22357;SDS011;11346;50.150;8.150;2022-11-20T07:22:29;30.37;;;8.83;;
22357;SDS011;11346;50.150;8.150;2022-11-20T07:24:56;22.43;;;8.43;;
22357;SDS011;11346;50.150;8.150;2022-11-20T07:27:23;22.23;;;8.33;;
22357;SDS011;11346;50.150;8.150;2022-11-20T07:29:50;19.93;;;8.63;;
22357;SDS011;11346;50.150;8.150;2022-11-20T07:32:17;18.90;;;8.27;;
22357;SDS011;11346;50.150;8.150;2022-11-20T07:34:45;17.87;;;8.37;;
22357;SDS011;11346;50.150;8.150;2022-11-20T07:37:13;13.83;;;7.53;;
22357;SDS011;11346;50.150;8.150;2022-11-20T07:39:40;15.37;;;7.67;;
22357;SDS011;11346;50.150;8.150;2022-11-20T07:42:07;16.77;;;7.50;;
22357;SDS011;11346;50.150;8.150;2022-11-20T07:44:34;12.90;;;7.20;;
22357;SDS011;11346;50.150;8.150;2022-11-20T07:47:01;12.73;;;7.37;;
22357;SDS011;11346;50.150;8.150;2022-11-20T07:49:28;13.87;;;7.10;;
22357;SDS011;11346;50.150;8.150;2022-11-20T07:51:57;14.03;;;6.80;;
22357;SDS011;11346;50.150;8.150;2022-11-20T07:54:24;11.80;;;6.53;;
22357;SDS011;11346;50.150;8.150;2022-11-20T07:56:51;11.47;;;6.50;;
22357;SDS011;11346;50.150;8.150;2022-11-20T07:59:18;11.03;;;6.50;;
22357;SDS011;11346;50.150;8.150;2022-11-20T08:01:45;13.30;;;7.27;;
22357;SDS011;11346;50.150;8.150;2022-11-20T08:04:12;10.73;;;6.70;;
22357;SDS011;11346;50.150;8.150;2022-11-20T08:06:41;11.53;;;6.77;;
22357;SDS011;11346;50.150;8.150;2022-11-20T08:09:09;10.30;;;6.17;;
22357;SDS011;11346;50.150;8.150;2022-11-20T08:11:36;9.43;;;5.43;;
22357;SDS011;11346;50.150;8.150;2022-11-20T08:14:21;11.60;;;6.73;;
22357;SDS011;11346;50.150;8.150;2022-11-20T08:16:48;8.37;;;5.30;;
22357;SDS011;11346;50.150;8.150;2022-11-20T08:19:17;8.70;;;5.07;;
22357;SDS011;11346;50.150;8.150;2022-11-20T08:21:44;8.50;;;5.13;;
22357;SDS011;11346;50.150;8.150;2022-11-20T08:24:12;9.47;;;4.67;;
22357;SDS011;11346;50.150;8.150;2022-11-20T08:26:40;7.87;;;5.00;;
22357;SDS011;11346;50.150;8.150;2022-11-20T08:29:07;9.70;;;5.43;;
22357;SDS011;11346;50.150;8.150;2022-11-20T08:31:34;8.80;;;5.37;;
22357;SDS011;11346;50.150;8.150;2022-11-20T08:34:01;11.90;;;6.07;;
22357;SDS011;11346;50.150;8.150;2022-11-20T08:36:28;9.70;;;5.73;;
22357;SDS011;11346;50.150;8.150;2022-11-20T08:38:55;9.60;;;5.70;;
22357;SDS011;11346;50.150;8.150;2022-11-20T08:41:24;9.23;;;5.83;;
22357;SDS011;11346;50.150;8.150;2022-11-20T08:43:52;8.63;;;5.70;;
22357;SDS011;11346;50.150;8.150;2022-11-20T08:46:20;9.93;;;6.07;;
22357;SDS011;11346;50.150;8.150;2022-11-20T08:48:47;9.60;;;5.63;;
22357;SDS011;11346;50.150;8.150;2022-11-20T08:51:14;9.83;;;6.07;;
22357;SDS011;11346;50.150;8.150;2022-11-20T08:53:41;6.87;;;4.63;;
22357;SDS011;11346;50.150;8.150;2022-11-20T08:56:08;8.27;;;5.27;;
22357;SDS011;11346;50.150;8.150;2022-11-20T08:58:37;7.90;;;5.13;;
22357;SDS011;11346;50.150;8.150;2022-11-20T09:01:04;7.90;;;5.37;;
22357;SDS011;11346;50.150;8.150;2022-11-20T09:03:31;7.87;;;5.00;;
22357;SDS011;11346;50.150;8.150;2022-11-20T09:05:58;8.00;;;5.13;;
22357;SDS011;11346;50.150;8.150;2022-11-20T09:08:26;8.00;;;5.30;;
22357;SDS011;11346;50.150;8.150;2022-11-20T09:10:53;11.93;;;5.90;;
22357;SDS011;11346;50.150;8.150;2022-11-20T09:13:20;8.70;;;5.70;;
22357;SDS011;11346;50.150;8.150;2022-11-20T09:15:53;7.80;;;5.37;;
22357;SDS011;11346;50.150;8.150;2022-11-20T09:18:21;9.27;;;5.23;;
22357;SDS011;11346;50.150;8.150;2022-11-20T09:20:48;8.33;;;5.17;;
22357;SDS011;11346;50.150;8.150;2022-11-20T09:23:16;8.87;;;5.43;;
22357;SDS011;11346;50.150;8.150;2022-11-20T09:25:43;8.40;;;5.83;;
22357;SDS011;11346;50.150;8.150;2022-11-20T09:28:10;8.93;;;5.27;;
22357;SDS011;11346;50.150;8.150;2022-11-20T09:30:37;9.70;;;5.53;;
22357;SDS011;11346;50.150;8.150;2022-11-20T09:33:06;9.40;;;5.50;;
22357;SDS011;11346;50.150;8.150;2022-11-20T09:35:33;9.37;;;5.80;;
22357;SDS011;11346;50.150;8.150;2022-11-20T09:38:06;8.43;;;5.27;;
22357;SDS011;11346;50.150;8.150;2022-11-20T09:40:35;9.23;;;5.67;;
22357;SDS011;11346;50.150;8.150;2022-11-20T09:43:07;9.47;;;6.07;;
22357;SDS011;11346;50.150;8.150;2022-11-20T09:45:38;9.53;;;5.77;;
22357;SDS011;11346;50.150;8.150;2022-11-20T09:48:11;10.00;;;5.67;;
22357;SDS011;11346;50.150;8.150;2022-11-20T09:50:43;8.80;;;5.43;;
22357;SDS011;11346;50.150;8.150;2022-11-20T09:53:16;8.70;;;5.33;;
22357;SDS011;11346;50.150;8.150;2022-11-20T09:55:47;8.73;;;5.70;;
22357;SDS011;11346;50.150;8.150;2022-11-20T09:58:16;9.03;;;5.47;;
22357;SDS011;11346;50.150;8.150;2022-11-20T10:00:46;8.53;;;5.33;;
22357;SDS011;11346;50.150;8.150;2022-11-20T10:03:16;7.60;;;5.53;;
22357;SDS011;11346;50.150;8.150;2022-11-20T10:05:45;12.27;;;5.80;;
22357;SDS011;11346;50.150;8.150;2022-11-20T10:08:14;9.07;;;6.33;;
22357;SDS011;11346;50.150;8.150;2022-11-20T10:10:44;9.05;;;5.90;;
22357;SDS011;11346;50.150;8.150;2022-11-20T10:13:17;9.53;;;6.17;;
22357;SDS011;11346;50.150;8.150;2022-11-20T10:15:52;8.73;;;5.47;;
22357;SDS011;11346;50.150;8.150;2022-11-20T10:18:26;8.93;;;5.17;;
22357;SDS011;11346;50.150;8.150;2022-11-20T10:20:55;8.27;;;5.10;;
22357;SDS011;11346;50.150;8.150;2022-11-20T10:23:27;7.60;;;5.07;;
22357;SDS011;11346;50.150;8.150;2022-11-20T10:26:00;9.53;;;4.73;;
22357;SDS011;11346;50.150;8.150;2022-11-20T10:28:30;7.37;;;4.87;;
22357;SDS011;11346;50.150;8.150;2022-11-20T10:31:03;9.27;;;5.27;;
22357;SDS011;11346;50.150;8.150;2022-11-20T10:33:33;9.77;;;5.57;;
22357;SDS011;11346;50.150;8.150;2022-11-20T10:36:05;11.13;;;5.90;;
22357;SDS011;11346;50.150;8.150;2022-11-20T10:38:34;8.40;;;5.37;;
22357;SDS011;11346;50.150;8.150;2022-11-20T10:41:04;11.47;;;6.07;;
22357;SDS011;11346;50.150;8.150;2022-11-20T10:43:50;7.77;;;5.10;;
22357;SDS011;11346;50.150;8.150;2022-11-20T10:46:20;8.63;;;5.57;;
22357;SDS011;11346;50.150;8.150;2022-11-20T10:48:49;9.13;;;5.73;;
22357;SDS011;11346;50.150;8.150;2022-11-20T10:51:18;8.63;;;5.80;;
22357;SDS011;11346;50.150;8.150;2022-11-20T10:53:58;10.17;;;5.70;;
22357;SDS011;11346;50.150;8.150;2022-11-20T10:56:33;7.70;;;5.23;;
22357;SDS011;11346;50.150;8.150;2022-11-20T10:59:04;8.20;;;5.37;;
22357;SDS011;11346;50.150;8.150;2022-11-20T11:01:39;9.17;;;6.00;;
22357;SDS011;11346;50.150;8.150;2022-11-20T11:04:08;10.17;;;6.07;;
22357;SDS011;11346;50.150;8.150;2022-11-20T11:06:42;9.77;;;5.23;;
22357;SDS011;11346;50.150;8.150;2022-11-20T11:09:11;9.17;;;5.93;;
22357;SDS011;11346;50.150;8.150;2022-11-20T11:11:40;11.57;;;6.20;;
22357;SDS011;11346;50.150;8.150;2022-11-20T11:14:07;9.33;;;6.00;;
22357;SDS011;11346;50.150;8.150;2022-11-20T11:16:34;8.63;;;6.30;;
22357;SDS011;11346;50.150;8.150;2022-11-20T11:19:06;10.60;;;6.00;;
22357;SDS011;11346;50.150;8.150;2022-11-20T11:21:34;9.40;;;6.10;;
22357;SDS011;11346;50.150;8.150;2022-11-20T11:24:14;11.03;;;5.90;;
22357;SDS011;11346;50.150;8.150;2022-11-20T11:26:50;11.10;;;6.90;;
22357;SDS011;11346;50.150;8.150;2022-11-20T11:29:17;10.67;;;6.07;;
22357;SDS011;11346;50.150;8.150;2022-11-20T11:31:45;8.63;;;6.13;;
22357;SDS011;11346;50.150;8.150;2022-11-20T11:34:12;9.90;;;5.77;;
22357;SDS011;11346;50.150;8.150;2022-11-20T11:36:41;10.43;;;6.40;;
22357;SDS011;11346;50.150;8.150;2022-11-20T11:39:11;11.23;;;6.73;;
22357;SDS011;11346;50.150;8.150;2022-11-20T11:41:39;7.93;;;6.07;;
22357;SDS011;11346;50.150;8.150;2022-11-20T11:44:13;10.40;;;6.30;;
22357;SDS011;11346;50.150;8.150;2022-11-20T11:47:00;9.80;;;6.37;;
22357;SDS011;11346;50.150;8.150;2022-11-20T11:49:27;9.53;;;6.27;;
22357;SDS011;11346;50.150;8.150;2022-11-20T11:52:08;10.50;;;6.60;;
22357;SDS011;11346;50.150;8.150;2022-11-20T11:54:38;9.30;;;6.13;;
22357;SDS011;11346;50.150;8.150;2022-11-20T11:57:10;10.33;;;6.20;;
22357;SDS011;11346;50.150;8.150;2022-11-20T11:59:41;9.60;;;6.40;;
22357;SDS011;11346;50.150;8.150;2022-11-20T12:02:13;11.10;;;6.53;;
22357;SDS011;11346;50.150;8.150;2022-11-20T12:04:43;10.47;;;6.53;;
22357;SDS011;11346;50.150;8.150;2022-11-20T12:07:13;10.27;;;7.07;;
22357;SDS011;11346;50.150;8.150;2022-11-20T12:09:43;9.37;;;6.60;;
22357;SDS011;11346;50.150;8.150;2022-11-20T12:12:14;10.60;;;6.70;;
22357;SDS011;11346;50.150;8.150;2022-11-20T12:14:43;9.33;;;6.33;;
22357;SDS011;11346;50.150;8.150;2022-11-20T12:17:12;11.27;;;6.53;;
22357;SDS011;11346;50.150;8.150;2022-11-20T12:19:40;11.50;;;7.00;;
22357;SDS011;11346;50.150;8.150;2022-11-20T12:22:11;9.37;;;6.57;;
22357;SDS011;11346;50.150;8.150;2022-11-20T12:24:46;10.70;;;6.53;;
22357;SDS011;11346;50.150;8.150;2022-11-20T12:30:12;12.90;;;6.63;;
22357;SDS011;11346;50.150;8.150;2022-11-20T12:32:44;11.63;;;7.20;;
22357;SDS011;11346;50.150;8.150;2022-11-20T12:35:21;10.90;;;6.70;;
22357;SDS011;11346;50.150;8.150;2022-11-20T12:37:52;10.87;;;7.07;;
22357;SDS011;11346;50.150;8.150;2022-11-20T12:40:28;9.17;;;6.33;;
22357;SDS011;11346;50.150;8.150;2022-11-20T12:43:01;11.07;;;7.23;;
22357;SDS011;11346;50.150;8.150;2022-11-20T12:48:38;10.43;;;6.60;;
22357;SDS011;11346;50.150;8.150;2022-11-20T12:51:12;11.97;;;7.47;;
22357;SDS011;11346;50.150;8.150;2022-11-20T12:53:43;13.17;;;6.40;;
22357;SDS011;11346;50.150;8.150;2022-11-20T12:56:20;12.40;;;7.63;;
22357;SDS011;11346;50.150;8.150;2022-11-20T12:58:50;13.50;;;7.93;;
22357;SDS011;11346;50.150;8.150;2022-11-20T13:01:24;10.90;;;7.00;;
22357;SDS011;11346;50.150;8.150;2022-11-20T13:06:54;20.77;;;10.47;;
22357;SDS011;11346;50.150;8.150;2022-11-20T13:09:21;19.43;;;10.43;;
22357;SDS011;11346;50.150;8.150;2022-11-20T13:11:52;20.07;;;11.00;;
22357;SDS011;11346;50.150;8.150;2022-11-20T13:14:26;22.60;;;11.57;;
22357;SDS011;11346;50.150;8.150;2022-11-20T13:16:57;15.80;;;9.30;;
22357;SDS011;11346;50.150;8.150;2022-11-20T13:19:25;11.07;;;6.67;;
22357;SDS011;11346;50.150;8.150;2022-11-20T13:21:53;11.97;;;6.23;;
22357;SDS011;11346;50.150;8.150;2022-11-20T13:24:22;10.00;;;5.80;;
22357;SDS011;11346;50.150;8.150;2022-11-20T13:27:00;12.10;;;6.80;;
22357;SDS011;11346;50.150;8.150;2022-11-20T13:29:28;10.77;;;6.37;;
22357;SDS011;11346;50.150;8.150;2022-11-20T13:32:02;9.00;;;5.43;;
22357;SDS011;11346;50.150;8.150;2022-11-20T13:34:30;10.50;;;5.93;;
22357;SDS011;11346;50.150;8.150;2022-11-20T13:36:57;8.93;;;5.17;;
22357;SDS011;11346;50.150;8.150;2022-11-20T13:39:26;7.43;;;5.10;;
22357;SDS011;11346;50.150;8.150;2022-11-20T13:41:53;7.83;;;5.03;;
22357;SDS011;11346;50.150;8.150;2022-11-20T13:44:25;16.40;;;9.90;;
22357;SDS011;11346;50.150;8.150;2022-11-20T13:46:52;23.07;;;11.97;;
22357;SDS011;11346;50.150;8.150;2022-11-20T13:49:21;23.87;;;12.77;;
22357;SDS011;11346;50.150;8.150;2022-11-20T13:51:50;41.40;;;14.70;;
22357;SDS011;11346;50.150;8.150;2022-11-20T13:54:34;29.30;;;14.23;;
22357;SDS011;11346;50.150;8.150;2022-11-20T13:57:11;31.57;;;15.20;;
22357;SDS011;11346;50.150;8.150;2022-11-20T13:59:49;29.73;;;13.97;;
22357;SDS011;11346;50.150;8.150;2022-11-20T14:02:21;25.93;;;13.23;;
22357;SDS011;11346;50.150;8.150;2022-11-20T14:04:49;27.73;;;13.17;;
22357;SDS011;11346;50.150;8.150;2022-11-20T14:07:17;24.90;;;13.07;;
22357;SDS011;11346;50.150;8.150;2022-11-20T14:09:51;21.43;;;10.67;;
22357;SDS011;11346;50.150;8.150;2022-11-20T14:12:19;22.10;;;10.77;;
22357;SDS011;11346;50.150;8.150;2022-11-20T14:14:49;24.17;;;12.10;;
22357;SDS011;11346;50.150;8.150;2022-11-20T14:17:18;41.33;;;13.70;;
22357;SDS011;11346;50.150;8.150;2022-11-20T14:19:46;31.43;;;13.43;;
22357;SDS011;11346;50.150;8.150;2022-11-20T14:22:17;33.23;;;12.90;;
22357;SDS011;11346;50.150;8.150;2022-11-20T14:24:45;32.43;;;12.97;;
22357;SDS011;11346;50.150;8.150;2022-11-20T14:27:12;35.63;;;12.77;;
22357;SDS011;11346;50.150;8.150;2022-11-20T14:29:40;27.23;;;12.33;;
22357;SDS011;11346;50.150;8.150;2022-11-20T14:32:09;22.17;;;11.90;;
22357;SDS011;11346;50.150;8.150;2022-11-20T14:34:37;20.93;;;10.83;;
22357;SDS011;11346;50.150;8.150;2022-11-20T14:37:05;23.97;;;10.87;;
22357;SDS011;11346;50.150;8.150;2022-11-20T14:39:34;28.17;;;12.90;;
22357;SDS011;11346;50.150;8.150;2022-11-20T14:42:01;36.63;;;12.53;;
22357;SDS011;11346;50.150;8.150;2022-11-20T14:44:30;45.13;;;12.87;;
22357;SDS011;11346;50.150;8.150;2022-11-20T14:46:59;34.13;;;12.70;;
22357;SDS011;11346;50.150;8.150;2022-11-20T14:49:28;26.87;;;12.43;;